Time;durP1;ratioP1;P1;durP2;ratioP2;P2;SDS_P1;SDS_P2;PMS_P1;PMS_P2;Temp;Humidity;BMP_temperature;BMP_pressure;BME280_temperature;BME280_humidity;BME280_pressure;Samples;Min_cycle;Max_cycle;Signal;HPM_P1;HPM_P2
2023/05/12 00:02:09;;;;;;;;;;;;;;;-147.27;100.00;65176.34;5117736;28;19945;-52
2023/05/12 00:04:35;;;;;;;;;;;;;;;-147.27;100.00;65176.34;5116615;28;19920;-53
2023/05/12 00:07:00;;;;;;;;;;;;;;;-147.27;100.00;65176.34;5117821;28;19916;-51
2023/05/12 00:09:26;;;;;;;;;;;;;;;-147.27;100.00;65176.34;5118889;28;19927;-56
2023/05/12 00:11:51;;;;;;;;;;;;;;;-147.27;100.00;65176.34;5118971;28;19916;-55
2023/05/12 00:14:17;;;;;;;;;;;;;;;-147.27;100.00;65176.34;5117865;28;19927;-52
2023/05/12 00:16:42;;;;;;;;;;;;;;;-147.27;100.00;65176.34;5118376;28;19924;-52
2023/05/12 00:19:08;;;;;;;;;;;;;;;-147.27;100.00;65176.34;5121627;28;20283;-55
2023/05/12 00:21:33;;;;;;;;;;;;;;;-147.27;100.00;65176.34;5119507;28;19962;-54
2023/05/12 00:23:59;;;;;;;;;;;;;;;-147.27;100.00;65176.34;5117687;28;19916;-55
2023/05/12 00:26:24;;;;;;;;;;;;;;;-147.27;100.00;65176.34;5115640;28;19924;-51
2023/05/12 00:28:50;;;;;;;;;;;;;;;-147.27;100.00;65176.34;5120461;28;19912;-54
2023/05/12 00:31:16;;;;;;;;;;;;;;;-147.27;100.00;65176.34;5119894;28;19920;-52
2023/05/12 00:33:41;;;;;;;;;;;;;;;-147.27;100.00;65176.34;5114875;28;19955;-52
2023/05/12 00:36:07;;;;;;;;;;;;;;;-147.27;100.00;65176.34;5118962;28;19916;-54
2023/05/12 00:38:33;;;;;;;;;;;;;;;-147.27;100.00;65176.34;5118959;28;19941;-55
2023/05/12 00:41:00;;;;;;;;;;;;;;;-147.27;100.00;65176.34;5115387;28;19924;-52
2023/05/12 00:43:25;;;;;;;;;;;;;;;-147.27;100.00;65176.34;5116813;28;19942;-56
2023/05/12 00:45:51;;;;;;;;;;;;;;;-147.27;100.00;65176.34;5117538;28;19920;-52
2023/05/12 00:48:17;;;;;;;;;;;;;;;-147.27;100.00;65176.34;5117296;28;19937;-52
2023/05/12 00:50:43;;;;;;;;;;;;;;;-147.27;100.00;65176.34;5117513;28;19920;-54
2023/05/12 00:53:09;;;;;;;;;;;;;;;-147.27;100.00;65176.34;5115482;28;19964;-56
2023/05/12 00:55:36;;;;;;;;;;;;;;;-147.27;100.00;65176.34;5099230;28;19927;-54
2023/05/12 00:58:02;;;;;;;;;;;;;;;-147.27;100.00;65176.34;5100503;28;19916;-55
2023/05/12 01:00:28;;;;;;;;;;;;;;;-147.27;100.00;65176.34;5099118;28;19927;-54
2023/05/12 01:02:57;;;;;;;;;;;;;;;-147.27;100.00;65176.34;5099464;28;19926;-56
2023/05/12 01:05:30;;;;;;;;;;;;;;;-147.27;100.00;65176.34;5084370;28;19975;-51
2023/05/12 01:07:58;;;;;;;;;;;;;;;-147.27;100.00;65176.34;5098022;28;19942;-53
2023/05/12 01:10:24;;;;;;;;;;;;;;;-147.27;100.00;65176.34;5100057;28;19920;-55
2023/05/12 01:12:49;;;;;;;;;;;;;;;-147.27;100.00;65176.34;5102235;28;19931;-53
2023/05/12 01:15:17;;;;;;;;;;;;;;;-147.27;100.00;65176.34;5083471;28;19917;-56
2023/05/12 01:17:51;;;;;;;;;;;;;;;-147.27;100.00;65176.34;5083474;28;19943;-56
2023/05/12 01:20:17;;;;;;;;;;;;;;;-147.27;100.00;65176.34;5100142;28;19917;-57
2023/05/12 01:22:44;;;;;;;;;;;;;;;-147.27;100.00;65176.34;5082413;28;19956;-53
2023/05/12 01:25:13;;;;;;;;;;;;;;;-147.27;100.00;65176.34;5084111;28;19916;-55
2023/05/12 01:27:40;;;;;;;;;;;;;;;-147.27;100.00;65176.34;5082576;28;19924;-57
2023/05/12 01:30:08;;;;;;;;;;;;;;;-147.27;100.00;65176.34;5103289;28;19917;-56
2023/05/12 01:32:35;;;;;;;;;;;;;;;-147.27;100.00;65176.34;5088980;28;19947;-56
2023/05/12 01:35:01;;;;;;;;;;;;;;;-147.27;100.00;65176.34;5100827;28;19939;-55
2023/05/12 01:37:29;;;;;;;;;;;;;;;-147.27;100.00;65176.34;5087918;28;19916;-56
2023/05/12 01:39:55;;;;;;;;;;;;;;;-147.27;100.00;65176.34;5083770;28;19917;-54
2023/05/12 01:42:20;;;;;;;;;;;;;;;-147.27;100.00;65176.34;5082971;28;19935;-54
2023/05/12 01:44:47;;;;;;;;;;;;;;;-147.27;100.00;65176.34;5081165;28;19952;-52
2023/05/12 01:47:14;;;;;;;;;;;;;;;-147.27;100.00;65176.34;5095710;28;19924;-59
2023/05/12 01:49:44;;;;;;;;;;;;;;;-147.27;100.00;65176.34;5081599;28;19924;-55
2023/05/12 01:52:12;;;;;;;;;;;;;;;-147.27;100.00;65176.34;5076572;28;19974;-54
2023/05/12 01:54:38;;;;;;;;;;;;;;;-147.27;100.00;65176.34;5150161;27;19916;-56
2023/05/12 01:57:05;;;;;;;;;;;;;;;-147.27;100.00;65176.34;5119845;28;19927;-55
2023/05/12 01:59:31;;;;;;;;;;;;;;;-147.27;100.00;65176.34;5100249;28;19924;-53
2023/05/12 02:01:56;;;;;;;;;;;;;;;-147.27;100.00;65176.34;5110147;28;19955;-53
2023/05/12 02:04:28;;;;;;;;;;;;;;;-147.27;100.00;65176.34;5146721;27;19916;-54
2023/05/12 02:06:56;;;;;;;;;;;;;;;-147.27;100.00;65176.34;5146476;27;19920;-56
2023/05/12 02:09:22;;;;;;;;;;;;;;;-147.27;100.00;65176.34;5142803;27;19945;-53
2023/05/12 02:11:49;;;;;;;;;;;;;;;-147.27;100.00;65176.34;5112958;28;19952;-54
2023/05/12 02:14:15;;;;;;;;;;;;;;;-147.27;100.00;65176.34;5114874;28;20009;-51
2023/05/12 02:16:40;;;;;;;;;;;;;;;-147.27;100.00;65176.34;5110654;28;20003;-54
2023/05/12 02:19:05;;;;;;;;;;;;;;;-147.27;100.00;65176.34;5145379;27;19951;-54
2023/05/12 02:21:31;;;;;;;;;;;;;;;-147.27;100.00;65176.34;5115072;28;19955;-54
2023/05/12 02:23:57;;;;;;;;;;;;;;;-147.27;100.00;65176.34;5113188;28;19937;-56
2023/05/12 02:26:22;;;;;;;;;;;;;;;-147.27;100.00;65176.34;5149938;27;20169;-52
2023/05/12 02:28:47;;;;;;;;;;;;;;;-147.27;100.00;65176.34;5121941;28;19916;-53
2023/05/12 02:31:13;;;;;;;;;;;;;;;-147.27;100.00;65176.34;5118477;28;19920;-55
2023/05/12 02:33:39;;;;;;;;;;;;;;;-147.27;100.00;65176.34;5118654;28;19916;-56
2023/05/12 02:36:05;;;;;;;;;;;;;;;-147.27;100.00;65176.34;5140385;27;19927;-54
2023/05/12 02:38:30;;;;;;;;;;;;;;;-147.27;100.00;65176.34;5116849;28;19916;-52
2023/05/12 02:40:56;;;;;;;;;;;;;;;-147.27;100.00;65176.34;5122003;28;19944;-56
2023/05/12 02:43:22;;;;;;;;;;;;;;;-147.27;100.00;65176.34;5116079;28;19916;-55
2023/05/12 02:45:47;;;;;;;;;;;;;;;-147.27;100.00;65176.34;5118167;28;20025;-55
2023/05/12 02:48:13;;;;;;;;;;;;;;;-147.27;100.00;65176.34;5122787;28;19919;-56
2023/05/12 02:50:39;;;;;;;;;;;;;;;-147.27;100.00;65176.34;5121040;28;19916;-55
2023/05/12 02:53:04;;;;;;;;;;;;;;;-147.27;100.00;65176.34;5117631;28;19928;-54
2023/05/12 02:55:29;;;;;;;;;;;;;;;-147.27;100.00;65176.34;5122267;28;19950;-54
2023/05/12 02:57:55;;;;;;;;;;;;;;;-147.27;100.00;65176.34;5118418;28;19916;-56
2023/05/12 03:00:20;;;;;;;;;;;;;;;-147.27;100.00;65176.34;5151250;27;19983;-57
2023/05/12 03:02:47;;;;;;;;;;;;;;;-147.27;100.00;65176.34;5116872;28;19931;-55
2023/05/12 03:05:12;;;;;;;;;;;;;;;-147.27;100.00;65176.34;5119702;28;19916;-55
2023/05/12 03:07:38;;;;;;;;;;;;;;;-147.27;100.00;65176.34;5116271;28;19979;-56
2023/05/12 03:10:04;;;;;;;;;;;;;;;-147.27;100.00;65176.34;5113941;28;19938;-53
2023/05/12 03:12:30;;;;;;;;;;;;;;;-147.27;100.00;65176.34;5117773;28;19955;-54
2023/05/12 03:14:56;;;;;;;;;;;;;;;-147.27;100.00;65176.34;5121308;28;19916;-55
2023/05/12 03:17:22;;;;;;;;;;;;;;;-147.27;100.00;65176.34;5117017;28;19926;-52
2023/05/12 03:19:48;;;;;;;;;;;;;;;-147.27;100.00;65176.34;5117269;28;19923;-53
2023/05/12 03:22:16;;;;;;;;;;;;;;;-147.27;100.00;65176.34;5118583;28;19920;-53
2023/05/12 03:24:42;;;;;;;;;;;;;;;-147.27;100.00;65176.34;5118225;28;20003;-56
2023/05/12 03:27:07;;;;;;;;;;;;;;;-147.27;100.00;65176.34;5119768;28;19912;-56
2023/05/12 03:29:32;;;;;;;;;;;;;;;-147.27;100.00;65176.34;5127426;28;19929;-53
2023/05/12 03:31:58;;;;;;;;;;;;;;;-147.27;100.00;65176.34;5119762;28;19927;-55
2023/05/12 03:34:23;;;;;;;;;;;;;;;-147.27;100.00;65176.34;5118472;28;19960;-55
2023/05/12 03:36:49;;;;;;;;;;;;;;;-147.27;100.00;65176.34;5116526;28;19916;-53
2023/05/12 03:39:15;;;;;;;;;;;;;;;-147.27;100.00;65176.34;5147047;27;19927;-51
2023/05/12 03:41:41;;;;;;;;;;;;;;;-147.27;100.00;65176.34;5117333;28;19919;-56
2023/05/12 03:44:07;;;;;;;;;;;;;;;-147.27;100.00;65176.34;5147648;27;19923;-55
2023/05/12 03:46:33;;;;;;;;;;;;;;;-147.27;100.00;65176.34;5119084;28;19967;-54
2023/05/12 03:48:59;;;;;;;;;;;;;;;-147.27;100.00;65176.34;5118962;28;19927;-56
2023/05/12 03:51:24;;;;;;;;;;;;;;;-147.27;100.00;65176.34;5117150;28;19916;-54
2023/05/12 03:53:50;;;;;;;;;;;;;;;-147.27;100.00;65176.34;5117543;28;19924;-53
2023/05/12 03:56:16;;;;;;;;;;;;;;;-147.27;100.00;65176.34;5119653;28;19950;-56
2023/05/12 03:58:42;;;;;;;;;;;;;;;-147.27;100.00;65176.34;5120297;28;19939;-54
2023/05/12 04:01:07;;;;;;;;;;;;;;;-147.27;100.00;65176.34;5118394;28;19932;-52
2023/05/12 04:03:33;;;;;;;;;;;;;;;-147.27;100.00;65176.34;5120719;28;19941;-53
2023/05/12 04:06:00;;;;;;;;;;;;;;;-147.27;100.00;65176.34;5118136;28;19927;-54
2023/05/12 04:08:26;;;;;;;;;;;;;;;-147.27;100.00;65176.34;5121857;28;19916;-51
2023/05/12 04:10:56;;;;;;;;;;;;;;;-147.27;100.00;65176.34;5121117;28;19916;-54
2023/05/12 04:13:22;;;;;;;;;;;;;;;-147.27;100.00;65176.34;5118286;28;19923;-53
2023/05/12 04:15:48;;;;;;;;;;;;;;;-147.27;100.00;65176.34;5122406;28;19924;-51
2023/05/12 04:18:13;;;;;;;;;;;;;;;-147.27;100.00;65176.34;5124941;28;19926;-53
2023/05/12 04:20:39;;;;;;;;;;;;;;;-147.27;100.00;65176.34;5119422;28;19916;-55
2023/05/12 04:23:05;;;;;;;;;;;;;;;-147.27;100.00;65176.34;5125068;28;19979;-53
2023/05/12 04:25:30;;;;;;;;;;;;;;;-147.27;100.00;65176.34;5120037;28;19916;-56
2023/05/12 04:27:56;;;;;;;;;;;;;;;-147.27;100.00;65176.34;5118602;28;19941;-53
2023/05/12 04:30:22;;;;;;;;;;;;;;;-147.27;100.00;65176.34;5119159;28;19927;-52
2023/05/12 04:32:48;;;;;;;;;;;;;;;-147.27;100.00;65176.34;5151451;27;19915;-54
2023/05/12 04:35:14;;;;;;;;;;;;;;;-147.27;100.00;65176.34;5117685;28;19924;-53
2023/05/12 04:37:40;;;;;;;;;;;;;;;-147.27;100.00;65176.34;5115936;28;19947;-55
2023/05/12 04:40:06;;;;;;;;;;;;;;;-147.27;100.00;65176.34;5119666;28;19916;-55
2023/05/12 04:42:32;;;;;;;;;;;;;;;-147.27;100.00;65176.34;5118509;28;19977;-52
2023/05/12 04:44:59;;;;;;;;;;;;;;;-147.27;100.00;65176.34;5119234;28;19916;-54
2023/05/12 04:47:24;;;;;;;;;;;;;;;-147.27;100.00;65176.34;5117092;28;19924;-54
2023/05/12 04:49:49;;;;;;;;;;;;;;;-147.27;100.00;65176.34;5122332;28;19925;-54
2023/05/12 04:52:15;;;;;;;;;;;;;;;-147.27;100.00;65176.34;5117459;28;19916;-54
2023/05/12 04:54:40;;;;;;;;;;;;;;;-147.27;100.00;65176.34;5091988;28;19923;-52
2023/05/12 04:57:05;;;;;;;;;;;;;;;-147.27;100.00;65176.34;5088216;28;19927;-54
2023/05/12 04:59:31;;;;;;;;;;;;;;;-147.27;100.00;65176.34;5107611;28;19927;-56
2023/05/12 05:01:56;;;;;;;;;;;;;;;-147.27;100.00;65176.34;5099130;28;19920;-55
2023/05/12 05:04:22;;;;;;;;;;;;;;;-147.27;100.00;65176.34;5091098;28;19938;-53
2023/05/12 05:06:48;;;;;;;;;;;;;;;-147.27;100.00;65176.34;5085529;28;19951;-56
2023/05/12 05:09:14;;;;;;;;;;;;;;;-147.27;100.00;65176.34;5086383;28;19978;-54
2023/05/12 05:11:40;;;;;;;;;;;;;;;-147.27;100.00;65176.34;5112772;28;19916;-56
2023/05/12 05:14:05;;;;;;;;;;;;;;;-147.27;100.00;65176.34;5106807;28;19927;-55
2023/05/12 05:16:32;;;;;;;;;;;;;;;-147.27;100.00;65176.34;5088810;28;19916;-56
2023/05/12 05:18:58;;;;;;;;;;;;;;;-147.27;100.00;65176.34;5090051;28;19958;-57
2023/05/12 05:21:23;;;;;;;;;;;;;;;-147.27;100.00;65176.34;5086737;28;19931;-57
2023/05/12 05:23:48;;;;;;;;;;;;;;;-147.27;100.00;65176.34;5089183;28;19955;-54
2023/05/12 05:26:14;;;;;;;;;;;;;;;-147.27;100.00;65176.34;5086561;28;19955;-53
2023/05/12 05:28:40;;;;;;;;;;;;;;;-147.27;100.00;65176.34;5106648;28;19916;-51
2023/05/12 05:31:06;;;;;;;;;;;;;;;-147.27;100.00;65176.34;5088451;28;19916;-55
2023/05/12 05:33:31;;;;;;;;;;;;;;;-147.27;100.00;65176.34;5089876;28;19927;-54
2023/05/12 05:35:57;;;;;;;;;;;;;;;-147.27;100.00;65176.34;5106382;28;19951;-56
2023/05/12 05:38:22;;;;;;;;;;;;;;;-147.27;100.00;65176.34;5090067;28;20164;-55
2023/05/12 05:40:48;;;;;;;;;;;;;;;-147.27;100.00;65176.34;5090960;28;19963;-55
2023/05/12 05:43:14;;;;;;;;;;;;;;;-147.27;100.00;65176.34;5105009;28;19991;-54
2023/05/12 05:45:39;;;;;;;;;;;;;;;-147.27;100.00;65176.34;5080600;28;19998;-53
2023/05/12 05:48:05;;;;;;;;;;;;;;;-147.27;100.00;65176.34;5087364;28;19916;-55
2023/05/12 05:50:31;;;;;;;;;;;;;;;-147.27;100.00;65176.34;5085489;28;19916;-53
2023/05/12 05:52:57;;;;;;;;;;;;;;;-147.27;100.00;65176.34;5097176;28;19920;-56
2023/05/12 05:55:23;;;;;;;;;;;;;;;-147.27;100.00;65176.34;5102018;28;19919;-56
2023/05/12 05:57:49;;;;;;;;;;;;;;;-147.27;100.00;65176.34;5119906;28;22193;-55
2023/05/12 06:00:14;;;;;;;;;;;;;;;-147.27;100.00;65176.34;5115182;28;19949;-54
2023/05/12 06:02:43;;;;;;;;;;;;;;;-147.27;100.00;65176.34;5117716;28;19995;-53
2023/05/12 06:05:15;;;;;;;;;;;;;;;-147.27;100.00;65176.34;5118626;28;19931;-57
2023/05/12 06:07:40;;;;;;;;;;;;;;;-147.27;100.00;65176.34;5119403;28;19916;-54
2023/05/12 06:10:06;;;;;;;;;;;;;;;-147.27;100.00;65176.34;5116554;28;19938;-56
2023/05/12 06:12:32;;;;;;;;;;;;;;;-147.27;100.00;65176.34;5120816;28;19916;-55
2023/05/12 06:14:58;;;;;;;;;;;;;;;-147.27;100.00;65176.34;5120089;28;19972;-55
2023/05/12 06:17:23;;;;;;;;;;;;;;;-147.27;100.00;65176.34;5121815;28;19924;-56
2023/05/12 06:19:49;;;;;;;;;;;;;;;-147.27;100.00;65176.34;5117354;28;19916;-58
2023/05/12 06:22:15;;;;;;;;;;;;;;;-147.27;100.00;65176.34;5117511;28;19935;-58
2023/05/12 06:24:40;;;;;;;;;;;;;;;-147.27;100.00;65176.34;5118439;28;19916;-55
2023/05/12 06:27:08;;;;;;;;;;;;;;;-147.27;100.00;65176.34;5120116;28;19916;-55
2023/05/12 06:29:33;;;;;;;;;;;;;;;-147.27;100.00;65176.34;5116921;28;19920;-54
2023/05/12 06:31:59;;;;;;;;;;;;;;;-147.27;100.00;65176.34;5115744;28;19941;-56
2023/05/12 06:34:24;;;;;;;;;;;;;;;-147.27;100.00;65176.34;5113826;28;19916;-54
2023/05/12 06:36:50;;;;;;;;;;;;;;;-147.27;100.00;65176.34;5119355;28;19919;-54
2023/05/12 06:39:16;;;;;;;;;;;;;;;-147.27;100.00;65176.34;5118032;28;19923;-58
2023/05/12 06:41:42;;;;;;;;;;;;;;;-147.27;100.00;65176.34;5119935;28;19924;-56
2023/05/12 06:44:17;;;;;;;;;;;;;;;-147.27;100.00;65176.34;5117274;28;19948;-52
2023/05/12 06:46:43;;;;;;;;;;;;;;;-147.27;100.00;65176.34;5152460;27;19923;-55
2023/05/12 06:49:08;;;;;;;;;;;;;;;-147.27;100.00;65176.34;5118790;28;19920;-56
2023/05/12 06:51:34;;;;;;;;;;;;;;;-147.27;100.00;65176.34;5116701;28;19912;-55
2023/05/12 06:54:00;;;;;;;;;;;;;;;-147.27;100.00;65176.34;5120886;28;19920;-55
2023/05/12 06:56:25;;;;;;;;;;;;;;;-147.27;100.00;65176.34;5117741;28;19927;-56
2023/05/12 06:58:51;;;;;;;;;;;;;;;-147.27;100.00;65176.34;5112600;28;19996;-54
2023/05/12 07:01:17;;;;;;;;;;;;;;;-147.27;100.00;65176.34;5114243;28;19920;-58
2023/05/12 07:03:43;;;;;;;;;;;;;;;-147.27;100.00;65176.34;5118763;28;19916;-56
2023/05/12 07:06:08;;;;;;;;;;;;;;;-147.27;100.00;65176.34;5121497;28;19916;-57
2023/05/12 07:08:34;;;;;;;;;;;;;;;-147.27;100.00;65176.34;5116166;28;19920;-55
2023/05/12 07:10:59;;;;;;;;;;;;;;;-147.27;100.00;65176.34;5128445;28;19923;-56
2023/05/12 07:13:25;;;;;;;;;;;;;;;-147.27;100.00;65176.34;5122521;28;19943;-57
2023/05/12 07:15:50;;;;;;;;;;;;;;;-147.27;100.00;65176.34;5125860;28;19963;-56
2023/05/12 07:18:15;;;;;;;;;;;;;;;-147.27;100.00;65176.34;5120930;28;19916;-56
2023/05/12 07:20:42;;;;;;;;;;;;;;;-147.27;100.00;65176.34;5121820;28;19954;-56
2023/05/12 07:23:08;;;;;;;;;;;;;;;-147.27;100.00;65176.34;5120424;28;19916;-56
2023/05/12 07:25:33;;;;;;;;;;;;;;;-147.27;100.00;65176.34;5122200;28;19979;-55
2023/05/12 07:27:58;;;;;;;;;;;;;;;-147.27;100.00;65176.34;5119524;28;19923;-55
2023/05/12 07:30:24;;;;;;;;;;;;;;;-147.27;100.00;65176.34;5121531;28;19916;-54
2023/05/12 07:32:49;;;;;;;;;;;;;;;-147.27;100.00;65176.34;5118677;28;19924;-54
2023/05/12 07:35:14;;;;;;;;;;;;;;;-147.27;100.00;65176.34;5122685;28;19923;-52
2023/05/12 07:37:40;;;;;;;;;;;;;;;-147.27;100.00;65176.34;5118522;28;19924;-54
2023/05/12 07:40:07;;;;;;;;;;;;;;;-147.27;100.00;65176.34;5118899;28;19930;-57
2023/05/12 07:42:32;;;;;;;;;;;;;;;-147.27;100.00;65176.34;5121792;28;19924;-53
2023/05/12 07:44:58;;;;;;;;;;;;;;;-147.27;100.00;65176.34;5116308;28;19935;-53
2023/05/12 07:47:23;;;;;;;;;;;;;;;-147.27;100.00;65176.34;5120355;28;19920;-56
2023/05/12 07:49:49;;;;;;;;;;;;;;;-147.27;100.00;65176.34;5122271;28;19942;-54
2023/05/12 07:52:14;;;;;;;;;;;;;;;-147.27;100.00;65176.34;5125766;28;19916;-56
2023/05/12 07:54:39;;;;;;;;;;;;;;;-147.27;100.00;65176.34;5119509;28;19973;-54
2023/05/12 07:57:05;;;;;;;;;;;;;;;-147.27;100.00;65176.34;5118463;28;19928;-49
2023/05/12 07:59:30;;;;;;;;;;;;;;;-147.27;100.00;65176.34;5120448;28;19916;-48
2023/05/12 08:01:55;;;;;;;;;;;;;;;-147.27;100.00;65176.34;5118874;28;19947;-52
2023/05/12 08:04:21;;;;;;;;;;;;;;;-147.27;100.00;65176.34;5116985;28;19951;-54
2023/05/12 08:06:46;;;;;;;;;;;;;;;-147.27;100.00;65176.34;5119384;28;19938;-54
2023/05/12 08:09:11;;;;;;;;;;;;;;;-147.27;100.00;65176.34;5125093;28;19961;-52
2023/05/12 08:11:37;;;;;;;;;;;;;;;-147.27;100.00;65176.34;5121845;27;19916;-52
2023/05/12 08:14:02;;;;;;;;;;;;;;;-147.27;100.00;65176.34;5119208;28;19916;-52
2023/05/12 08:16:27;;;;;;;;;;;;;;;-147.27;100.00;65176.34;5121848;28;19934;-55
2023/05/12 08:18:53;;;;;;;;;;;;;;;-147.27;100.00;65176.34;5121703;28;19916;-54
2023/05/12 08:21:18;;;;;;;;;;;;;;;-147.27;100.00;65176.34;5121609;28;19927;-53
2023/05/12 08:23:44;;;;;;;;;;;;;;;-147.27;100.00;65176.34;5122286;27;19949;-53
2023/05/12 08:26:09;;;;;;;;;;;;;;;-147.27;100.00;65176.34;5119355;28;19916;-51
2023/05/12 08:28:35;;;;;;;;;;;;;;;-147.27;100.00;65176.34;5155642;27;19916;-53
2023/05/12 08:31:01;;;;;;;;;;;;;;;-147.27;100.00;65176.34;5124098;28;19920;-55
2023/05/12 08:33:26;;;;;;;;;;;;;;;-147.27;100.00;65176.34;5120548;28;19920;-55
2023/05/12 08:35:51;;;;;;;;;;;;;;;-147.27;100.00;65176.34;5118753;28;19916;-52
2023/05/12 08:38:17;;;;;;;;;;;;;;;-147.27;100.00;65176.34;5121803;28;19916;-55
2023/05/12 08:40:45;;;;;;;;;;;;;;;-147.27;100.00;65176.34;5121201;28;19982;-51
2023/05/12 08:43:23;;;;;;;;;;;;;;;-147.27;100.00;65176.34;5123159;28;19923;-51
2023/05/12 08:45:48;;;;;;;;;;;;;;;-147.27;100.00;65176.34;5121905;28;20002;-53
2023/05/12 08:48:16;;;;;;;;;;;;;;;-147.27;100.00;65176.34;5123267;28;19924;-53
2023/05/12 08:50:43;;;;;;;;;;;;;;;-147.27;100.00;65176.34;5122063;28;19927;-54
2023/05/12 08:53:10;;;;;;;;;;;;;;;-147.27;100.00;65176.34;5120731;28;19919;-53
2023/05/12 08:55:36;;;;;;;;;;;;;;;-147.27;100.00;65176.34;5120525;28;19964;-50
2023/05/12 08:58:02;;;;;;;;;;;;;;;-147.27;100.00;65176.34;5122401;28;19932;-52
2023/05/12 09:00:27;;;;;;;;;;;;;;;-147.27;100.00;65176.34;5118498;28;19923;-55
2023/05/12 09:02:53;;;;;;;;;;;;;;;-147.27;100.00;65176.34;5120364;27;19919;-48
2023/05/12 09:05:18;;;;;;;;;;;;;;;-147.27;100.00;65176.34;5120420;28;19944;-55
2023/05/12 09:07:44;;;;;;;;;;;;;;;-147.27;100.00;65176.34;5122901;28;19920;-56
2023/05/12 09:10:18;;;;;;;;;;;;;;;-147.27;100.00;65176.34;5118435;28;19926;-52
2023/05/12 09:12:49;;;;;;;;;;;;;;;-147.27;100.00;65176.34;5119211;28;19915;-54
2023/05/12 09:15:18;;;;;;;;;;;;;;;-147.27;100.00;65176.34;5119975;28;19926;-52
2023/05/12 09:17:44;;;;;;;;;;;;;;;-147.27;100.00;65176.34;5123163;28;19927;-54
2023/05/12 09:20:11;;;;;;;;;;;;;;;-147.27;100.00;65176.34;5120597;28;19916;-55
2023/05/12 09:22:38;;;;;;;;;;;;;;;-147.27;100.00;65176.34;5118523;28;19920;-55
2023/05/12 09:25:17;;;;;;;;;;;;;;;-147.27;100.00;65176.34;5120716;28;19924;-51
2023/05/12 09:27:47;;;;;;;;;;;;;;;-147.27;100.00;65176.34;5117565;28;19916;-56
2023/05/12 09:30:13;;;;;;;;;;;;;;;-147.27;100.00;65176.34;5121440;28;19941;-54
2023/05/12 09:32:39;;;;;;;;;;;;;;;-147.27;100.00;65176.34;5118838;28;19916;-55
2023/05/12 09:35:05;;;;;;;;;;;;;;;-147.27;100.00;65176.34;5117673;28;19926;-51
2023/05/12 09:37:33;;;;;;;;;;;;;;;-147.27;100.00;65176.34;5121836;28;19915;-54
2023/05/12 09:40:03;;;;;;;;;;;;;;;-147.27;100.00;65176.34;5118337;28;19916;-54
2023/05/12 09:42:30;;;;;;;;;;;;;;;-147.27;100.00;65176.34;5116404;28;19987;-55
2023/05/12 09:44:59;;;;;;;;;;;;;;;-147.27;100.00;65176.34;5120862;28;19916;-55
2023/05/12 09:47:32;;;;;;;;;;;;;;;-147.27;100.00;65176.34;5120075;28;19948;-51
2023/05/12 09:49:58;;;;;;;;;;;;;;;-147.27;100.00;65176.34;5119966;28;19924;-53
2023/05/12 09:52:23;;;;;;;;;;;;;;;-147.27;100.00;65176.34;5118668;28;19916;-53
2023/05/12 09:54:51;;;;;;;;;;;;;;;-147.27;100.00;65176.34;5105902;28;19972;-52
2023/05/12 09:57:18;;;;;;;;;;;;;;;-147.27;100.00;65176.34;5103823;28;19924;-52
2023/05/12 09:59:44;;;;;;;;;;;;;;;-147.27;100.00;65176.34;5104930;28;19920;-52
2023/05/12 10:02:12;;;;;;;;;;;;;;;-147.27;100.00;65176.34;5119149;28;19999;-52
2023/05/12 10:04:49;;;;;;;;;;;;;;;-147.27;100.00;65176.34;5103403;28;19916;-55
2023/05/12 10:07:15;;;;;;;;;;;;;;;-147.27;100.00;65176.34;5102917;28;19930;-54
2023/05/12 10:09:41;;;;;;;;;;;;;;;-147.27;100.00;65176.34;5105787;28;19916;-54
2023/05/12 10:12:07;;;;;;;;;;;;;;;-147.27;100.00;65176.34;5098294;28;19911;-48
2023/05/12 10:14:34;;;;;;;;;;;;;;;-147.27;100.00;65176.34;5105150;28;19916;-53
2023/05/12 10:17:00;;;;;;;;;;;;;;;-147.27;100.00;65176.34;5105268;28;19925;-54
2023/05/12 10:19:27;;;;;;;;;;;;;;;-147.27;100.00;65176.34;5104510;28;19920;-52
2023/05/12 10:21:55;;;;;;;;;;;;;;;-147.27;100.00;65176.34;5104474;28;19920;-54
2023/05/12 10:24:20;;;;;;;;;;;;;;;-147.27;100.00;65176.34;5105101;28;19930;-54
2023/05/12 10:26:46;;;;;;;;;;;;;;;-147.27;100.00;65176.34;5101494;28;19916;-54
2023/05/12 10:29:12;;;;;;;;;;;;;;;-147.27;100.00;65176.34;5104773;28;19916;-52
2023/05/12 10:31:37;;;;;;;;;;;;;;;-147.27;100.00;65176.34;5101929;28;19924;-49
2023/05/12 10:34:03;;;;;;;;;;;;;;;-147.27;100.00;65176.34;5105076;28;19954;-55
2023/05/12 10:36:28;;;;;;;;;;;;;;;-147.27;100.00;65176.34;5104466;28;19916;-53
2023/05/12 10:38:54;;;;;;;;;;;;;;;-147.27;100.00;65176.34;5104652;28;19920;-54
2023/05/12 10:41:30;;;;;;;;;;;;;;;-147.27;100.00;65176.34;5101199;28;20010;-52
2023/05/12 10:43:56;;;;;;;;;;;;;;;-147.27;100.00;65176.34;5103206;28;19923;-50
2023/05/12 10:46:23;;;;;;;;;;;;;;;-147.27;100.00;65176.34;5109206;28;19916;-56
2023/05/12 10:48:51;;;;;;;;;;;;;;;-147.27;100.00;65176.34;5107293;28;19927;-55
2023/05/12 10:51:25;;;;;;;;;;;;;;;-147.27;100.00;65176.34;5107013;28;19916;-53
2023/05/12 10:53:58;;;;;;;;;;;;;;;-147.27;100.00;65176.34;5106949;28;19929;-56
2023/05/12 10:56:25;;;;;;;;;;;;;;;-147.27;100.00;65176.34;5110116;28;19920;-54
2023/05/12 10:59:07;;;;;;;;;;;;;;;-147.27;100.00;65176.34;5104544;28;19925;-52
2023/05/12 11:01:33;;;;;;;;;;;;;;;-147.27;100.00;65176.34;5109692;28;19966;-52
2023/05/12 11:04:11;;;;;;;;;;;;;;;-147.27;100.00;65176.34;5108956;28;19924;-53
2023/05/12 11:06:38;;;;;;;;;;;;;;;-147.27;100.00;65176.34;5107462;28;19927;-51
2023/05/12 11:09:03;;;;;;;;;;;;;;;-147.27;100.00;65176.34;5124559;28;19938;-53
2023/05/12 11:11:29;;;;;;;;;;;;;;;-147.27;100.00;65176.34;5109878;28;19916;-55
2023/05/12 11:13:55;;;;;;;;;;;;;;;-147.27;100.00;65176.34;5104929;28;20013;-53
2023/05/12 11:16:20;;;;;;;;;;;;;;;-147.27;100.00;65176.34;5108832;28;19951;-53
2023/05/12 11:18:47;;;;;;;;;;;;;;;-147.27;100.00;65176.34;5106809;28;19924;-57
2023/05/12 11:21:13;;;;;;;;;;;;;;;-147.27;100.00;65176.34;5108688;28;19943;-56
2023/05/12 11:23:38;;;;;;;;;;;;;;;-147.27;100.00;65176.34;5106545;28;19916;-52
2023/05/12 11:26:06;;;;;;;;;;;;;;;-147.27;100.00;65176.34;5108402;28;19920;-54
2023/05/12 11:28:38;;;;;;;;;;;;;;;-147.27;100.00;65176.34;5110030;28;19927;-54
2023/05/12 11:31:03;;;;;;;;;;;;;;;-147.27;100.00;65176.34;5105225;28;19988;-55
2023/05/12 11:33:29;;;;;;;;;;;;;;;-147.27;100.00;65176.34;5108214;28;19916;-55
2023/05/12 11:35:54;;;;;;;;;;;;;;;-147.27;100.00;65176.34;5107627;28;19923;-55
2023/05/12 11:38:23;;;;;;;;;;;;;;;-147.27;100.00;65176.34;5110061;28;19916;-53
2023/05/12 11:40:48;;;;;;;;;;;;;;;-147.27;100.00;65176.34;5110450;28;19924;-57
2023/05/12 11:43:18;;;;;;;;;;;;;;;-147.27;100.00;65176.34;5107088;28;19935;-58
2023/05/12 11:45:44;;;;;;;;;;;;;;;-147.27;100.00;65176.34;5107046;28;19912;-59
2023/05/12 11:48:11;;;;;;;;;;;;;;;-147.27;100.00;65176.34;5107181;28;19939;-54
2023/05/12 11:50:38;;;;;;;;;;;;;;;-147.27;100.00;65176.34;5106169;28;19927;-55
2023/05/12 11:53:03;;;;;;;;;;;;;;;-147.27;100.00;65176.34;5113899;28;19920;-51
2023/05/12 11:55:29;;;;;;;;;;;;;;;-147.27;100.00;65176.34;5120960;28;19922;-58
2023/05/12 11:57:58;;;;;;;;;;;;;;;-147.27;100.00;65176.34;5119498;28;21470;-53
2023/05/12 12:00:31;;;;;;;;;;;;;;;-147.27;100.00;65176.34;5124527;28;19919;-53
2023/05/12 12:03:07;;;;;;;;;;;;;;;-147.27;100.00;65176.34;5118535;28;19920;-56
2023/05/12 12:05:32;;;;;;;;;;;;;;;-147.27;100.00;65176.34;5120583;28;19915;-58
2023/05/12 12:08:05;;;;;;;;;;;;;;;-147.27;100.00;65176.34;5119589;28;20401;-60
2023/05/12 12:10:30;;;;;;;;;;;;;;;-147.27;100.00;65176.34;5120030;28;19946;-58
2023/05/12 12:12:55;;;;;;;;;;;;;;;-147.27;100.00;65176.34;5119786;28;19919;-58
2023/05/12 12:15:20;;;;;;;;;;;;;;;-147.27;100.00;65176.34;5118203;28;19916;-55